Time;durP1;ratioP1;P1;durP2;ratioP2;P2;SDS_P1;SDS_P2;PMS_P1;PMS_P2;Temp;Humidity;BMP_temperature;BMP_pressure;BME280_temperature;BME280_humidity;BME280_pressure;Samples;Min_cycle;Max_cycle;Signal;HPM_P1;HPM_P2
2023/03/03 00:01:19;;;;;;;9.25;6.82;;;;;;;19.09;46.35;101196.09;5041945;28;20056;-50
2023/03/03 00:03:46;;;;;;;8.57;7.40;;;;;;;19.09;46.24;101192.56;5031854;28;20042;-49
2023/03/03 00:06:13;;;;;;;9.13;6.93;;;;;;;19.08;46.08;101196.19;5032448;28;20053;-50
2023/03/03 00:08:41;;;;;;;7.72;6.93;;;;;;;19.05;46.18;101194.63;5039607;28;20055;-50
2023/03/03 00:11:10;;;;;;;8.23;6.78;;;;;;;19.04;45.99;101198.28;5052793;28;20049;-50
2023/03/03 00:13:45;;;;;;;8.45;6.57;;;;;;;19.03;45.91;101193.88;5042526;28;20050;-51
2023/03/03 00:16:21;;;;;;;10.02;6.55;;;;;;;19.02;46.15;101187.66;5033185;28;20068;-51
2023/03/03 00:18:49;;;;;;;8.52;6.70;;;;;;;19.03;46.07;101193.88;5032725;28;20053;-50
2023/03/03 00:21:24;;;;;;;11.10;7.88;;;;;;;19.01;46.08;101193.16;5032631;28;20045;-49
2023/03/03 00:23:52;;;;;;;7.30;5.70;;;;;;;19.01;45.87;101190.47;5032690;28;20069;-49
2023/03/03 00:26:22;;;;;;;10.02;6.90;;;;;;;19.00;46.04;101189.63;5033996;28;20050;-51
2023/03/03 00:28:51;;;;;;;8.25;6.82;;;;;;;19.01;46.14;101198.53;5040845;28;20052;-52
2023/03/03 00:31:33;;;;;;;7.57;6.68;;;;;;;18.98;45.81;101196.91;5056076;28;20052;-51
2023/03/03 00:34:25;;;;;;;8.48;6.78;;;;;;;18.98;45.86;101201.44;5056521;28;20049;-50
2023/03/03 00:36:54;;;;;;;7.30;6.40;;;;;;;18.98;45.67;101204.13;5054855;28;20049;-49
2023/03/03 00:39:32;;;;;;;9.13;6.30;;;;;;;18.97;45.88;101195.22;5055168;28;20049;-52
2023/03/03 00:42:03;;;;;;;8.80;7.18;;;;;;;18.98;45.75;101198.75;5056095;28;20052;-49
2023/03/03 00:44:55;;;;;;;7.65;6.78;;;;;;;18.97;45.82;101202.41;5055185;28;20071;-51
2023/03/03 00:47:37;;;;;;;10.27;7.23;;;;;;;18.96;45.76;101204.25;5056070;28;20057;-51
2023/03/03 00:50:10;;;;;;;7.05;6.35;;;;;;;18.96;45.61;101192.66;5054924;28;20062;-50
2023/03/03 00:52:52;;;;;;;7.88;6.60;;;;;;;18.95;45.74;101197.16;5055978;28;20089;-50
2023/03/03 00:55:20;;;;;;;10.10;7.20;;;;;;;18.95;45.77;101190.94;5037633;28;20581;-49
2023/03/03 00:57:47;;;;;;;7.05;6.15;;;;;;;18.95;45.71;101196.31;5054362;28;20045;-50
2023/03/03 01:00:18;;;;;;;8.85;6.50;;;;;;;18.94;45.67;101183.88;5054362;28;20063;-49
2023/03/03 01:02:47;;;;;;;8.00;6.50;;;;;;;18.93;45.60;101177.66;5040306;28;20057;-51
2023/03/03 01:05:16;;;;;;;12.70;6.70;;;;;;;18.93;45.57;101174.13;5053154;28;20052;-50
2023/03/03 01:07:43;;;;;;;8.20;6.22;;;;;;;18.92;45.71;101175.06;5054576;28;20395;-49
2023/03/03 01:10:11;;;;;;;8.65;6.53;;;;;;;18.92;45.75;101169.72;5053647;28;20079;-49
2023/03/03 01:12:39;;;;;;;7.90;6.45;;;;;;;18.91;45.66;101168.00;5055677;28;20052;-49
2023/03/03 01:15:08;;;;;;;7.13;5.93;;;;;;;18.91;45.62;101168.00;5055250;28;20064;-50
2023/03/03 01:17:36;;;;;;;8.13;6.35;;;;;;;18.91;45.83;101157.28;5053950;28;20056;-49
2023/03/03 01:20:03;;;;;;;8.00;6.82;;;;;;;18.90;45.73;101158.25;5055512;28;20049;-50
2023/03/03 01:22:31;;;;;;;7.25;6.28;;;;;;;18.91;45.75;101151.91;5054111;28;20057;-53
2023/03/03 01:24:58;;;;;;;6.63;5.65;;;;;;;18.90;45.71;101150.22;5055289;28;20052;-50
2023/03/03 01:27:27;;;;;;;8.98;6.82;;;;;;;18.89;45.76;101143.16;5055673;28;20056;-50
2023/03/03 01:29:55;;;;;;;8.40;6.00;;;;;;;18.88;45.72;101139.63;5055118;28;20049;-52
2023/03/03 01:32:23;;;;;;;8.23;6.68;;;;;;;18.88;45.70;101141.41;5055017;28;20049;-49
2023/03/03 01:34:51;;;;;;;7.75;6.60;;;;;;;18.87;45.71;101135.19;5053675;28;20049;-50
2023/03/03 01:37:18;;;;;;;8.00;6.22;;;;;;;18.86;45.70;101136.19;5053291;28;20060;-52
2023/03/03 01:39:53;;;;;;;8.57;6.97;;;;;;;18.87;45.77;101129.84;5054811;28;20045;-50
2023/03/03 01:42:21;;;;;;;8.57;6.75;;;;;;;18.86;45.66;101129.97;5054972;28;20475;-51
2023/03/03 01:45:22;;;;;;;8.13;6.90;;;;;;;18.87;45.69;101126.31;5054086;28;20127;-53
2023/03/03 01:48:05;;;;;;;7.85;6.15;;;;;;;18.87;45.81;101137.03;5055941;28;20053;-49
2023/03/03 01:50:50;;;;;;;8.95;6.60;;;;;;;18.87;45.77;101127.16;5054582;28;20052;-49
2023/03/03 01:53:21;;;;;;;7.28;6.10;;;;;;;18.87;45.75;101132.53;5054666;28;20048;-50
2023/03/03 01:55:51;;;;;;;8.25;6.70;;;;;;;18.86;45.92;101122.78;5054035;28;20056;-50
2023/03/03 01:58:25;;;;;;;9.55;6.68;;;;;;;18.88;45.79;101130.69;5053261;28;20063;-50
2023/03/03 02:00:59;;;;;;;7.65;6.57;;;;;;;18.86;45.70;101128.13;5054690;28;20045;-49
2023/03/03 02:03:28;;;;;;;7.88;6.28;;;;;;;18.85;45.64;101123.75;5042058;28;20045;-50
2023/03/03 02:06:02;;;;;;;8.18;6.18;;;;;;;18.86;45.61;101121.91;5032901;28;20045;-48
2023/03/03 02:08:38;;;;;;;7.35;6.32;;;;;;;18.86;45.54;101121.91;5034220;28;20057;-49
2023/03/03 02:11:05;;;;;;;9.15;7.13;;;;;;;18.85;45.75;101121.06;5033506;28;20041;-50
2023/03/03 02:13:32;;;;;;;8.18;6.13;;;;;;;18.86;45.62;101116.56;5034054;28;20045;-50
2023/03/03 02:16:00;;;;;;;8.02;6.57;;;;;;;18.85;45.64;101120.22;5033949;28;20042;-50
2023/03/03 02:18:28;;;;;;;9.55;6.68;;;;;;;18.85;45.69;101112.19;5032907;28;20064;-51
2023/03/03 02:20:55;;;;;;;8.32;6.55;;;;;;;18.84;45.71;101100.59;5034517;28;20053;-53
2023/03/03 02:23:44;;;;;;;7.57;6.55;;;;;;;18.84;45.86;101108.66;5032836;28;20060;-52
2023/03/03 02:26:14;;;;;;;8.07;6.95;;;;;;;18.84;45.66;101105.09;5032356;28;20041;-52
2023/03/03 02:28:42;;;;;;;7.10;6.40;;;;;;;18.84;45.59;101097.91;5033565;28;20507;-53
2023/03/03 02:31:14;;;;;;;8.88;7.22;;;;;;;18.84;45.65;101097.03;5049213;28;20056;-48
2023/03/03 02:33:47;;;;;;;7.38;6.00;;;;;;;18.83;45.61;101095.34;5052235;28;20059;-49
2023/03/03 02:36:17;;;;;;;7.88;6.50;;;;;;;18.83;45.67;101106.06;5052547;28;20380;-52
2023/03/03 02:39:04;;;;;;;6.93;5.82;;;;;;;18.83;45.68;101101.53;5054013;28;20056;-51
2023/03/03 02:41:37;;;;;;;7.63;5.75;;;;;;;18.82;45.66;101104.38;5052546;28;20056;-49
2023/03/03 02:44:12;;;;;;;6.43;5.68;;;;;;;18.82;45.59;101096.31;5053153;28;20384;-49
2023/03/03 02:46:42;;;;;;;7.18;6.20;;;;;;;18.82;45.89;101104.38;5053863;28;20049;-49
2023/03/03 02:49:11;;;;;;;8.07;6.38;;;;;;;18.81;45.98;101087.41;5051953;28;20056;-49
2023/03/03 02:51:39;;;;;;;8.60;6.10;;;;;;;18.83;46.13;101098.00;5052242;28;20506;-49
2023/03/03 02:54:09;;;;;;;8.60;6.55;;;;;;;18.82;46.04;101094.47;5053771;28;20041;-50
2023/03/03 02:56:36;;;;;;;8.00;6.22;;;;;;;18.81;46.11;101087.41;5053541;28;20045;-48
2023/03/03 02:59:05;;;;;;;8.57;6.63;;;;;;;18.82;46.20;101085.59;5053809;28;20479;-49
2023/03/03 03:01:37;;;;;;;7.25;6.40;;;;;;;18.81;46.16;101091.94;5051689;28;20376;-48
2023/03/03 03:04:12;;;;;;;7.53;6.50;;;;;;;18.81;46.19;101089.25;5042716;28;20056;-53
2023/03/03 03:06:44;;;;;;;7.45;6.13;;;;;;;18.81;46.06;101075.84;5031557;28;20046;-50
2023/03/03 03:09:14;;;;;;;8.18;6.22;;;;;;;18.81;46.04;101075.84;5032733;28;20495;-51
2023/03/03 03:11:42;;;;;;;7.20;6.07;;;;;;;18.80;46.02;101077.69;5048774;28;20052;-52
2023/03/03 03:14:12;;;;;;;7.18;5.88;;;;;;;18.80;46.04;101074.13;5037489;28;20064;-49
2023/03/03 03:16:40;;;;;;;8.70;6.75;;;;;;;18.80;45.94;101074.13;5031768;28;20488;-49
2023/03/03 03:19:07;;;;;;;6.78;5.63;;;;;;;18.80;45.95;101074.13;5031894;28;20049;-52
2023/03/03 03:21:36;;;;;;;8.02;6.47;;;;;;;18.80;46.00;101069.63;5031691;28;20072;-49
2023/03/03 03:24:05;;;;;;;7.57;5.72;;;;;;;18.81;45.88;101073.16;5032480;28;20057;-51
2023/03/03 03:26:34;;;;;;;8.23;5.90;;;;;;;18.80;45.86;101069.63;5032009;28;20045;-49
2023/03/03 03:29:02;;;;;;;7.47;6.38;;;;;;;18.80;46.01;101082.16;5033056;28;20396;-48
2023/03/03 03:31:30;;;;;;;6.63;5.53;;;;;;;18.80;45.96;101077.69;5032304;28;20053;-49
2023/03/03 03:33:59;;;;;;;8.02;6.47;;;;;;;18.80;45.88;101080.34;5033216;28;20064;-52
2023/03/03 03:36:28;;;;;;;7.45;5.57;;;;;;;18.80;46.03;101075.00;5032118;28;20100;-51
2023/03/03 03:38:55;;;;;;;6.53;5.82;;;;;;;18.80;45.96;101080.34;5033686;28;20483;-49
2023/03/03 03:41:22;;;;;;;7.38;5.75;;;;;;;18.80;45.92;101082.16;5032976;28;20052;-50
2023/03/03 03:43:50;;;;;;;7.93;5.78;;;;;;;18.80;46.12;101075.00;5033090;28;20054;-49
2023/03/03 03:46:17;;;;;;;8.20;5.95;;;;;;;18.80;45.90;101079.47;5032366;28;20049;-49
2023/03/03 03:48:45;;;;;;;8.32;5.25;;;;;;;18.80;45.79;101079.47;5032916;28;20045;-49
2023/03/03 03:51:15;;;;;;;9.18;5.80;;;;;;;18.79;45.90;101073.25;5031608;28;20053;-49
2023/03/03 03:53:42;;;;;;;8.18;5.80;;;;;;;18.78;45.96;101083.16;5033060;28;20049;-52
2023/03/03 03:56:09;;;;;;;6.90;6.18;;;;;;;18.80;45.98;101074.13;5031670;28;20048;-50
2023/03/03 03:58:37;;;;;;;7.00;5.93;;;;;;;18.78;46.09;101066.19;5031813;28;20054;-53
2023/03/03 04:01:08;;;;;;;7.22;5.88;;;;;;;18.78;45.94;101068.88;5034573;28;20056;-49
2023/03/03 04:03:41;;;;;;;6.63;5.40;;;;;;;18.77;46.14;101065.34;5051029;28;20391;-52
2023/03/03 04:06:12;;;;;;;6.68;5.45;;;;;;;18.78;46.03;101071.56;5037560;28;20044;-51
2023/03/03 04:08:40;;;;;;;6.03;5.35;;;;;;;18.78;46.07;101072.41;5035658;28;20515;-51
2023/03/03 04:11:08;;;;;;;6.72;5.88;;;;;;;18.77;46.18;101064.50;5035467;28;20049;-52
2023/03/03 04:13:37;;;;;;;6.47;5.55;;;;;;;18.77;46.02;101070.72;5035648;28;20053;-49
2023/03/03 04:16:06;;;;;;;6.35;5.35;;;;;;;18.77;46.03;101065.34;5036077;28;20262;-48
2023/03/03 04:18:34;;;;;;;7.78;5.55;;;;;;;18.76;46.04;101066.34;5034808;28;20511;-49
2023/03/03 04:21:03;;;;;;;7.28;5.63;;;;;;;18.77;46.15;101064.50;5036026;28;20053;-49
2023/03/03 04:23:31;;;;;;;6.32;5.53;;;;;;;18.76;46.14;101069.03;5035517;28;20399;-49
2023/03/03 04:26:00;;;;;;;6.78;5.93;;;;;;;18.77;46.04;101070.72;5036142;28;20060;-52
2023/03/03 04:28:28;;;;;;;7.35;5.40;;;;;;;18.77;46.08;101061.81;5034582;28;20053;-51
2023/03/03 04:30:56;;;;;;;7.57;6.15;;;;;;;18.76;46.31;101063.66;5044331;28;20071;-49
2023/03/03 04:33:29;;;;;;;7.30;5.68;;;;;;;18.75;46.17;101056.56;5054767;28;20051;-50
2023/03/03 04:35:57;;;;;;;7.13;5.68;;;;;;;18.76;46.13;101055.59;5054379;28;20071;-53
2023/03/03 04:38:25;;;;;;;7.22;5.72;;;;;;;18.76;46.18;101046.72;5054765;28;20056;-48
2023/03/03 04:40:55;;;;;;;6.03;5.32;;;;;;;18.76;46.13;101052.06;5055295;28;20053;-50
2023/03/03 04:43:25;;;;;;;7.03;5.90;;;;;;;18.75;46.21;101053.88;5055190;28;20060;-49
2023/03/03 04:45:53;;;;;;;8.02;5.80;;;;;;;18.75;46.20;101053.03;5054869;28;20052;-50
2023/03/03 04:48:22;;;;;;;6.90;5.55;;;;;;;18.76;46.08;101057.44;5055214;28;20057;-48
2023/03/03 04:50:50;;;;;;;6.80;5.63;;;;;;;18.75;46.24;101053.88;5055915;28;20395;-52
2023/03/03 04:53:19;;;;;;;7.15;5.70;;;;;;;18.76;46.20;101052.06;5054541;28;20049;-49
2023/03/03 04:55:49;;;;;;;7.68;5.80;;;;;;;18.77;46.17;101060.00;5056173;28;20380;-49
2023/03/03 04:58:18;;;;;;;7.30;5.78;;;;;;;18.75;46.32;101045.84;5054466;28;20045;-49
2023/03/03 05:00:46;;;;;;;7.00;5.90;;;;;;;18.75;46.10;101059.25;5054562;28;20056;-48
2023/03/03 05:03:14;;;;;;;7.32;5.53;;;;;;;18.76;46.26;101052.06;5055648;28;20048;-51
2023/03/03 05:05:42;;;;;;;7.07;5.53;;;;;;;18.76;46.01;101058.28;5048875;28;20529;-50
2023/03/03 05:08:09;;;;;;;7.45;5.28;;;;;;;18.76;45.98;101060.97;5034587;28;20398;-50
2023/03/03 05:10:36;;;;;;;6.30;5.47;;;;;;;18.76;46.13;101057.44;5035879;28;20053;-50
2023/03/03 05:13:04;;;;;;;7.80;5.82;;;;;;;18.76;46.13;101052.94;5054002;28;20049;-49
2023/03/03 05:15:31;;;;;;;7.50;5.80;;;;;;;18.75;46.14;101047.66;5055444;28;20056;-49
2023/03/03 05:17:58;;;;;;;7.30;5.75;;;;;;;18.75;46.35;101048.50;5055035;28;20045;-49
2023/03/03 05:20:26;;;;;;;8.80;5.00;;;;;;;18.75;45.99;101053.88;5055256;28;20468;-48
2023/03/03 05:22:53;;;;;;;5.95;5.22;;;;;;;18.75;46.22;101039.63;5054989;28;20060;-49
2023/03/03 05:25:21;;;;;;;8.45;5.78;;;;;;;18.74;46.26;101041.44;5055978;28;20060;-49
2023/03/03 05:27:48;;;;;;;6.55;5.45;;;;;;;18.74;46.25;101041.44;5055117;28;20060;-49
2023/03/03 05:30:15;;;;;;;6.35;4.97;;;;;;;18.73;46.26;101045.13;5055027;28;20056;-49
2023/03/03 05:32:43;;;;;;;6.40;4.90;;;;;;;18.74;46.35;101041.44;5055426;28;20045;-49
2023/03/03 05:35:10;;;;;;;6.72;5.35;;;;;;;18.73;46.38;101044.28;5054967;28;20636;-49
2023/03/03 05:37:41;;;;;;;6.78;5.80;;;;;;;18.74;46.28;101044.13;5055390;28;20048;-49
2023/03/03 05:40:09;;;;;;;6.97;5.63;;;;;;;18.73;46.33;101042.44;5055004;28;20049;-51
2023/03/03 05:42:36;;;;;;;6.32;5.15;;;;;;;18.73;46.39;101047.81;5054856;28;20049;-51
2023/03/03 05:45:04;;;;;;;6.45;5.43;;;;;;;18.73;46.40;101041.59;5054854;28;20052;-49
2023/03/03 05:47:32;;;;;;;6.28;5.30;;;;;;;18.73;46.26;101041.59;5055008;28;20127;-52
2023/03/03 05:49:59;;;;;;;6.78;5.85;;;;;;;18.72;46.13;101037.22;5054943;28;20049;-48
2023/03/03 05:52:27;;;;;;;7.60;5.65;;;;;;;18.73;46.15;101041.59;5054546;28;20053;-51
2023/03/03 05:54:54;;;;;;;9.32;5.40;;;;;;;18.72;46.34;101039.88;5054933;28;20056;-50
2023/03/03 05:57:22;;;;;;;7.53;5.53;;;;;;;18.72;46.20;101039.88;5054728;28;20052;-51
2023/03/03 05:59:49;;;;;;;6.30;5.43;;;;;;;18.71;46.12;101044.38;5054434;28;20049;-52
2023/03/03 06:02:16;;;;;;;8.30;6.07;;;;;;;18.72;46.34;101043.41;5054774;28;20044;-52
2023/03/03 06:04:44;;;;;;;6.00;4.97;;;;;;;18.71;46.29;101044.38;5054174;28;20045;-49
2023/03/03 06:07:11;;;;;;;5.95;5.00;;;;;;;18.71;46.41;101038.16;5045102;28;20041;-49
2023/03/03 06:09:38;;;;;;;5.95;4.88;;;;;;;18.71;46.42;101040.84;5033661;28;20403;-49
2023/03/03 06:12:06;;;;;;;5.90;5.22;;;;;;;18.71;46.42;101043.53;5034041;28;20073;-49
2023/03/03 06:14:33;;;;;;;7.13;5.50;;;;;;;18.70;46.15;101044.50;5052948;28;20053;-49
2023/03/03 06:17:01;;;;;;;6.85;5.13;;;;;;;18.72;46.18;101050.63;5053992;28;20464;-50
2023/03/03 06:19:28;;;;;;;6.25;5.20;;;;;;;18.71;46.29;101044.38;5053831;28;20049;-49
2023/03/03 06:21:55;;;;;;;6.25;5.05;;;;;;;18.71;46.21;101047.06;5054083;28;20061;-51
2023/03/03 06:24:29;;;;;;;7.68;5.45;;;;;;;18.71;46.15;101048.88;5052799;28;20056;-49
2023/03/03 06:26:57;;;;;;;6.45;4.90;;;;;;;18.71;46.22;101049.72;5052627;28;20040;-50
2023/03/03 06:29:25;;;;;;;10.73;5.72;;;;;;;18.72;46.11;101055.97;5054237;28;20045;-50
2023/03/03 06:31:53;;;;;;;6.45;5.10;;;;;;;18.73;46.39;101058.53;5053594;28;20056;-49
2023/03/03 06:34:20;;;;;;;9.32;5.50;;;;;;;18.73;46.21;101065.72;5053752;28;20052;-50
2023/03/03 06:36:48;;;;;;;8.45;5.50;;;;;;;18.73;46.18;101068.41;5054029;28;20060;-48
2023/03/03 06:39:15;;;;;;;6.60;5.25;;;;;;;18.72;46.11;101069.38;5053618;28;20044;-52
2023/03/03 06:41:43;;;;;;;7.18;5.38;;;;;;;18.72;46.12;101062.19;5053738;28;20047;-49
2023/03/03 06:44:12;;;;;;;6.68;4.90;;;;;;;18.73;46.07;101068.41;5054152;28;20399;-49
2023/03/03 06:46:39;;;;;;;6.35;5.40;;;;;;;18.73;46.21;101063.03;5053671;28;20041;-49
2023/03/03 06:49:06;;;;;;;6.40;4.82;;;;;;;18.73;46.30;101071.09;5053518;28;20052;-48
2023/03/03 06:51:37;;;;;;;6.25;4.72;;;;;;;18.72;46.15;101062.19;5053886;28;20060;-51
2023/03/03 06:54:26;;;;;;;6.68;5.32;;;;;;;18.72;46.19;101072.06;5053376;28;20503;-50
2023/03/03 06:56:59;;;;;;;8.43;4.88;;;;;;;18.73;46.05;101073.78;5053395;28;20482;-49
2023/03/03 06:59:27;;;;;;;7.80;4.93;;;;;;;18.72;46.08;101078.28;5053445;28;20071;-52
2023/03/03 07:01:55;;;;;;;5.72;5.05;;;;;;;18.73;45.88;101090.72;5053809;28;20052;-50
2023/03/03 07:04:32;;;;;;;5.32;4.68;;;;;;;18.73;46.08;101092.53;5053328;28;20048;-49
2023/03/03 07:07:12;;;;;;;7.25;5.80;;;;;;;18.72;46.25;101085.47;5053134;28;20045;-48
2023/03/03 07:09:39;;;;;;;6.25;5.15;;;;;;;18.72;46.24;101097.06;5032233;28;20045;-49
2023/03/03 07:12:14;;;;;;;7.30;4.50;;;;;;;18.73;46.29;101101.44;5037941;28;20045;-50
2023/03/03 07:14:44;;;;;;;6.15;4.70;;;;;;;18.73;46.23;101096.06;5053146;28;20491;-49
2023/03/03 07:17:18;;;;;;;5.07;4.55;;;;;;;18.75;46.16;101095.94;5053419;28;20048;-50
2023/03/03 07:19:47;;;;;;;7.13;4.97;;;;;;;18.76;46.04;101098.53;5053179;28;20040;-53
2023/03/03 07:22:14;;;;;;;7.78;4.75;;;;;;;18.77;46.08;101097.53;5053304;28;20065;-50
2023/03/03 07:24:44;;;;;;;6.05;5.00;;;;;;;18.78;46.03;101101.06;5053399;28;20045;-52
2023/03/03 07:27:18;;;;;;;22.00;5.28;;;;;;;18.78;46.32;101109.13;5053072;28;20045;-52
2023/03/03 07:29:47;;;;;;;7.68;5.05;;;;;;;18.78;46.59;101109.13;5053012;28;20064;-52
2023/03/03 07:32:33;;;;;;;7.35;4.85;;;;;;;18.77;46.09;101107.41;5053300;28;20459;-50
2023/03/03 07:35:05;;;;;;;9.85;4.80;;;;;;;18.78;46.24;101111.81;5052871;28;20582;-54
2023/03/03 07:37:41;;;;;;;5.53;4.27;;;;;;;18.78;46.28;101112.66;5052808;28;20048;-49
2023/03/03 07:40:33;;;;;;;6.10;4.70;;;;;;;18.77;46.18;101113.63;5052827;28;20055;-52
2023/03/03 07:43:15;;;;;;;12.23;5.20;;;;;;;18.79;46.02;101118.88;5053309;28;20045;-51
2023/03/03 07:45:43;;;;;;;7.18;4.28;;;;;;;18.78;46.01;101120.69;5053161;28;20049;-50
2023/03/03 07:48:23;;;;;;;5.95;4.38;;;;;;;18.79;46.11;101124.22;5052788;28;20071;-52
2023/03/03 07:50:51;;;;;;;6.95;4.75;;;;;;;18.79;46.26;101124.22;5052602;28;20045;-49
2023/03/03 07:53:28;;;;;;;8.07;5.38;;;;;;;18.79;46.15;101124.22;5052989;28;20048;-49
2023/03/03 07:55:55;;;;;;;6.35;4.65;;;;;;;18.78;46.08;101123.38;5052692;28;20056;-53
2023/03/03 07:58:38;;;;;;;6.03;5.25;;;;;;;18.78;46.21;101131.41;5053008;28;20407;-51
2023/03/03 08:01:41;;;;;;;5.97;4.85;;;;;;;18.77;46.32;101128.88;5053109;28;20056;-52
2023/03/03 08:04:26;;;;;;;7.78;4.80;;;;;;;18.77;46.39;101127.03;5052743;28;20060;-50
2023/03/03 08:06:59;;;;;;;6.65;4.50;;;;;;;18.78;46.33;101128.75;5052634;28;20045;-51
2023/03/03 08:09:34;;;;;;;7.82;4.82;;;;;;;18.81;46.50;101132.16;5041584;28;20480;-52
2023/03/03 08:12:08;;;;;;;8.07;4.40;;;;;;;18.83;47.06;101131.06;5032161;28;20383;-49
2023/03/03 08:14:37;;;;;;;7.50;4.95;;;;;;;18.84;46.80;101137.28;5032242;28;20415;-52
2023/03/03 08:17:13;;;;;;;9.13;5.07;;;;;;;18.85;46.75;101139.00;5051978;28;20060;-53
2023/03/03 08:19:40;;;;;;;8.68;4.45;;;;;;;18.87;46.82;101142.41;5057272;28;20044;-52
2023/03/03 08:22:14;;;;;;;5.70;4.30;;;;;;;18.86;46.66;101140.69;5071811;28;20056;-53
2023/03/03 08:24:42;;;;;;;7.88;4.80;;;;;;;18.88;46.62;101144.09;5071758;28;20048;-49
2023/03/03 08:27:09;;;;;;;7.45;4.60;;;;;;;18.88;46.54;101144.09;5072635;28;20045;-52
2023/03/03 08:29:36;;;;;;;7.97;4.90;;;;;;;18.88;46.60;101150.34;5071747;28;20040;-53
2023/03/03 08:32:04;;;;;;;8.30;4.90;;;;;;;18.89;46.54;101159.25;5061818;28;20041;-50
2023/03/03 08:34:31;;;;;;;8.00;4.65;;;;;;;18.88;46.29;101158.41;5052660;28;20040;-50
2023/03/03 08:36:58;;;;;;;7.60;4.68;;;;;;;18.88;46.45;101154.84;5051993;28;20072;-50
2023/03/03 08:39:26;;;;;;;8.02;5.07;;;;;;;18.90;46.28;101155.56;5055318;28;20064;-50
2023/03/03 08:41:53;;;;;;;7.38;4.55;;;;;;;18.88;46.31;101150.34;5053992;28;20053;-50
2023/03/03 08:44:20;;;;;;;6.93;5.13;;;;;;;18.89;46.33;101159.25;5052116;28;20041;-54
2023/03/03 08:46:48;;;;;;;8.93;4.50;;;;;;;18.88;46.27;101155.72;5052228;28;20052;-54
2023/03/03 08:49:15;;;;;;;6.35;4.35;;;;;;;18.88;46.21;101144.09;5055930;28;20041;-51
2023/03/03 08:51:42;;;;;;;7.32;4.93;;;;;;;18.90;46.21;101158.25;5055615;28;20513;-52
2023/03/03 08:54:10;;;;;;;7.68;4.60;;;;;;;18.91;46.21;101162.66;5055211;28;20045;-49
2023/03/03 08:56:37;;;;;;;7.47;4.00;;;;;;;18.90;46.19;101156.44;5055809;28;20049;-49
2023/03/03 08:59:04;;;;;;;5.80;4.20;;;;;;;18.89;46.16;101164.59;5055169;28;20045;-50
2023/03/03 09:01:33;;;;;;;10.55;4.22;;;;;;;18.90;46.13;101163.63;5055266;28;20498;-49
2023/03/03 09:04:01;;;;;;;6.88;4.97;;;;;;;18.90;46.04;101169.84;5055806;28;20044;-52
2023/03/03 09:06:28;;;;;;;6.88;4.57;;;;;;;18.89;46.05;101162.78;5055456;28;20049;-49
2023/03/03 09:08:55;;;;;;;6.28;4.25;;;;;;;18.90;46.14;101160.94;5055052;28;20048;-54
2023/03/03 09:11:26;;;;;;;5.80;4.15;;;;;;;18.89;46.01;101161.94;5041340;28;20120;-52
2023/03/03 09:14:01;;;;;;;5.55;4.57;;;;;;;18.90;45.90;101166.31;5047394;28;20052;-50
2023/03/03 09:16:36;;;;;;;8.82;4.60;;;;;;;18.91;46.00;101170.69;5073442;28;20056;-50
2023/03/03 09:19:31;;;;;;;7.00;4.88;;;;;;;18.91;45.93;101171.53;5075221;28;20048;-50
2023/03/03 09:22:22;;;;;;;8.43;4.68;;;;;;;18.91;45.80;101173.38;5074818;28;20044;-53
2023/03/03 09:24:54;;;;;;;7.35;5.22;;;;;;;18.91;45.89;101173.38;5074538;28;20380;-55
2023/03/03 09:27:30;;;;;;;7.40;4.65;;;;;;;18.90;46.02;101163.63;5074867;28;20051;-53
2023/03/03 09:30:11;;;;;;;6.32;4.47;;;;;;;18.90;45.87;101171.69;5074827;28;20052;-54
2023/03/03 09:32:38;;;;;;;10.73;5.65;;;;;;;18.91;45.70;101165.31;5074554;28;20049;-52
2023/03/03 09:35:39;;;;;;;10.88;5.43;;;;;;;18.91;45.91;101170.69;5074545;28;20437;-53
2023/03/03 09:38:27;;;;;;;8.63;5.57;;;;;;;18.92;45.81;101170.59;5074497;28;20052;-49
2023/03/03 09:41:12;;;;;;;8.95;6.80;;;;;;;18.93;45.62;101172.28;5074506;28;20071;-53
2023/03/03 09:43:57;;;;;;;14.23;11.27;;;;;;;18.92;44.52;101169.72;5074625;28;20052;-52
2023/03/03 09:46:59;;;;;;;10.35;7.22;;;;;;;18.88;45.18;101174.50;5074215;28;20379;-54
2023/03/03 09:49:38;;;;;;;9.95;6.18;;;;;;;18.90;45.43;101163.63;5074746;28;20059;-53
2023/03/03 09:52:28;;;;;;;10.82;7.22;;;;;;;18.91;45.27;101168.84;5074591;28;20049;-53
2023/03/03 09:55:11;;;;;;;10.05;6.30;;;;;;;18.92;45.35;101167.03;5073768;28;20055;-50
2023/03/03 09:57:51;;;;;;;9.93;6.03;;;;;;;18.92;45.44;101169.72;5074116;28;20482;-50
2023/03/03 10:00:55;;;;;;;9.57;5.53;;;;;;;18.92;45.43;101165.22;5074001;28;20044;-54
2023/03/03 10:03:31;;;;;;;11.32;6.00;;;;;;;18.93;45.55;101168.75;5034731;28;20377;-51
2023/03/03 10:06:01;;;;;;;7.78;5.20;;;;;;;18.93;45.45;101160.72;5046272;28;20048;-54
2023/03/03 10:08:47;;;;;;;6.97;5.35;;;;;;;18.94;45.50;101167.78;5050745;28;20041;-55
2023/03/03 10:11:23;;;;;;;6.95;5.78;;;;;;;18.94;45.38;101167.78;5038381;28;20041;-53
2023/03/03 10:13:59;;;;;;;7.93;5.22;;;;;;;18.96;45.46;101168.53;5033500;28;20420;-52
2023/03/03 10:16:47;;;;;;;7.07;5.28;;;;;;;18.96;45.33;101168.53;5049376;28;20056;-50
2023/03/03 10:19:37;;;;;;;7.38;5.00;;;;;;;18.96;45.32;101168.53;5053722;28;20052;-52
2023/03/03 10:22:19;;;;;;;7.93;5.30;;;;;;;18.95;45.34;101164.09;5073487;28;20065;-54
2023/03/03 10:25:06;;;;;;;8.05;5.07;;;;;;;18.96;45.37;101165.84;5073716;28;20048;-55
2023/03/03 10:27:56;;;;;;;9.05;5.45;;;;;;;18.96;45.45;101169.38;5074027;28;20055;-55
2023/03/03 10:30:58;;;;;;;7.97;5.15;;;;;;;18.96;45.34;101164.00;5072282;28;20075;-54
2023/03/03 10:34:00;;;;;;;11.02;5.13;;;;;;;18.96;45.32;101169.38;5054720;28;20053;-52
2023/03/03 10:36:37;;;;;;;8.27;5.32;;;;;;;18.97;45.35;101167.53;5053066;28;20518;-51
2023/03/03 10:39:19;;;;;;;6.03;4.82;;;;;;;18.98;45.21;101170.09;5053387;28;20047;-50
2023/03/03 10:42:14;;;;;;;6.05;4.63;;;;;;;19.00;45.19;101172.66;5052958;28;20487;-50
2023/03/03 10:44:44;;;;;;;6.10;4.72;;;;;;;19.00;45.19;101170.84;5053321;28;20053;-55
2023/03/03 10:47:34;;;;;;;6.88;4.68;;;;;;;19.00;45.29;101167.31;5053592;28;20052;-55
2023/03/03 10:50:26;;;;;;;6.43;4.50;;;;;;;19.01;45.06;101169.00;5053015;28;20041;-56
2023/03/03 10:53:19;;;;;;;8.95;4.65;;;;;;;19.01;45.14;101166.31;5052656;28;20096;-55
2023/03/03 10:56:14;;;;;;;6.85;4.18;;;;;;;19.00;45.14;101170.84;5052749;28;20049;-56
2023/03/03 10:59:07;;;;;;;5.55;4.10;;;;;;;19.01;45.14;101169.00;5052997;28;20049;-55
2023/03/03 11:01:56;;;;;;;5.63;4.07;;;;;;;19.02;45.15;101162.66;5052810;28;20044;-53
2023/03/03 11:05:05;;;;;;;7.90;4.32;;;;;;;19.02;44.95;101163.50;5053217;28;20045;-55
2023/03/03 11:07:43;;;;;;;7.13;4.07;;;;;;;19.02;45.05;101163.50;5051878;28;20057;-56
2023/03/03 11:10:20;;;;;;;5.63;4.38;;;;;;;19.02;45.12;101163.50;5051302;28;20045;-55
2023/03/03 11:13:12;;;;;;;6.72;4.28;;;;;;;19.03;45.14;101167.03;5038987;28;20491;-55
2023/03/03 11:15:57;;;;;;;8.23;4.63;;;;;;;19.03;45.10;101159.84;5038471;28;20371;-54
2023/03/03 11:18:55;;;;;;;8.00;4.35;;;;;;;19.04;45.27;101158.03;5052753;28;20487;-54
2023/03/03 11:21:42;;;;;;;4.95;3.78;;;;;;;19.03;45.17;101149.09;5052809;28;20056;-56
2023/03/03 11:24:46;;;;;;;6.60;3.78;;;;;;;19.03;45.13;101153.63;5052949;28;20056;-49
2023/03/03 11:27:21;;;;;;;4.75;3.85;;;;;;;19.05;45.08;101145.47;5052836;28;20049;-49
2023/03/03 11:30:06;;;;;;;7.18;4.43;;;;;;;19.05;45.03;101143.63;5053011;28;20063;-50
2023/03/03 11:32:57;;;;;;;5.70;3.45;;;;;;;19.06;45.25;101147.16;5072785;28;20055;-50
2023/03/03 11:35:50;;;;;;;5.30;3.47;;;;;;;19.07;45.61;101146.19;5072518;28;20052;-51
2023/03/03 11:38:42;;;;;;;7.07;3.83;;;;;;;19.08;45.59;101138.03;5072622;28;20044;-50
2023/03/03 11:41:33;;;;;;;9.13;3.90;;;;;;;19.09;45.41;101134.38;5040720;28;20049;-52
2023/03/03 11:44:32;;;;;;;7.15;4.07;;;;;;;19.10;45.17;101129.84;5052666;28;20041;-56
2023/03/03 11:47:02;;;;;;;7.35;3.45;;;;;;;19.11;45.11;101123.50;5052361;28;20055;-56
2023/03/03 11:49:36;;;;;;;7.03;3.58;;;;;;;19.11;45.37;101120.81;5053019;28;20049;-55
2023/03/03 11:52:21;;;;;;;6.63;3.90;;;;;;;19.10;45.16;101117.28;5052699;28;20060;-54
2023/03/03 11:55:23;;;;;;;7.53;3.88;;;;;;;19.10;45.17;101119.13;5052434;28;20060;-55